sensor_id;sensor_type;location;lat;lon;timestamp;P1;durP1;ratioP1;P2;durP2;ratioP2
55007;SDS011;40902;45.116;21.296;2023-05-10T00:01:04;7.90;;;6.03;;
55007;SDS011;40902;45.116;21.296;2023-05-10T00:03:30;6.68;;;4.65;;
55007;SDS011;40902;45.116;21.296;2023-05-10T00:05:55;5.95;;;5.25;;
55007;SDS011;40902;45.116;21.296;2023-05-10T00:08:22;6.28;;;4.82;;
55007;SDS011;40902;45.116;21.296;2023-05-10T00:10:48;6.78;;;4.75;;
55007;SDS011;40902;45.116;21.296;2023-05-10T00:13:13;6.78;;;4.97;;
55007;SDS011;40902;45.116;21.296;2023-05-10T00:15:39;6.60;;;5.05;;
55007;SDS011;40902;45.116;21.296;2023-05-10T00:18:05;7.30;;;4.78;;
55007;SDS011;40902;45.116;21.296;2023-05-10T00:20:31;7.28;;;4.82;;
55007;SDS011;40902;45.116;21.296;2023-05-10T00:22:56;7.15;;;5.00;;
55007;SDS011;40902;45.116;21.296;2023-05-10T00:25:22;6.40;;;4.95;;
55007;SDS011;40902;45.116;21.296;2023-05-10T00:27:48;6.78;;;4.82;;
55007;SDS011;40902;45.116;21.296;2023-05-10T00:30:14;8.07;;;4.93;;
55007;SDS011;40902;45.116;21.296;2023-05-10T00:32:40;6.72;;;4.88;;
55007;SDS011;40902;45.116;21.296;2023-05-10T00:35:06;7.97;;;4.90;;
55007;SDS011;40902;45.116;21.296;2023-05-10T00:37:32;6.35;;;4.60;;
55007;SDS011;40902;45.116;21.296;2023-05-10T00:39:58;6.68;;;4.68;;
55007;SDS011;40902;45.116;21.296;2023-05-10T00:42:23;5.05;;;4.22;;
55007;SDS011;40902;45.116;21.296;2023-05-10T00:44:49;6.90;;;4.95;;
55007;SDS011;40902;45.116;21.296;2023-05-10T00:47:15;6.30;;;4.70;;
55007;SDS011;40902;45.116;21.296;2023-05-10T00:49:41;6.88;;;5.30;;
55007;SDS011;40902;45.116;21.296;2023-05-10T00:52:08;6.40;;;4.53;;
55007;SDS011;40902;45.116;21.296;2023-05-10T00:54:34;9.65;;;4.97;;
55007;SDS011;40902;45.116;21.296;2023-05-10T00:57:00;9.02;;;4.90;;
55007;SDS011;40902;45.116;21.296;2023-05-10T00:59:26;7.22;;;4.88;;
55007;SDS011;40902;45.116;21.296;2023-05-10T01:01:52;6.68;;;4.38;;
55007;SDS011;40902;45.116;21.296;2023-05-10T01:04:18;7.18;;;5.03;;
55007;SDS011;40902;45.116;21.296;2023-05-10T01:06:50;5.28;;;4.35;;
55007;SDS011;40902;45.116;21.296;2023-05-10T01:09:17;5.70;;;4.63;;
55007;SDS011;40902;45.116;21.296;2023-05-10T01:11:43;6.28;;;4.63;;
55007;SDS011;40902;45.116;21.296;2023-05-10T01:14:10;6.53;;;4.72;;
55007;SDS011;40902;45.116;21.296;2023-05-10T01:16:36;7.30;;;4.82;;
55007;SDS011;40902;45.116;21.296;2023-05-10T01:19:04;5.95;;;4.65;;
55007;SDS011;40902;45.116;21.296;2023-05-10T01:21:43;7.82;;;4.93;;
55007;SDS011;40902;45.116;21.296;2023-05-10T01:38:49;6.88;;;4.88;;
55007;SDS011;40902;45.116;21.296;2023-05-10T01:41:25;6.60;;;4.38;;
55007;SDS011;40902;45.116;21.296;2023-05-10T01:44:09;9.15;;;5.40;;
55007;SDS011;40902;45.116;21.296;2023-05-10T01:46:53;9.35;;;5.05;;
55007;SDS011;40902;45.116;21.296;2023-05-10T01:49:30;6.22;;;5.00;;
55007;SDS011;40902;45.116;21.296;2023-05-10T01:52:00;9.27;;;5.22;;
55007;SDS011;40902;45.116;21.296;2023-05-10T01:54:31;9.38;;;5.10;;
55007;SDS011;40902;45.116;21.296;2023-05-10T01:57:00;6.93;;;4.95;;
55007;SDS011;40902;45.116;21.296;2023-05-10T01:59:30;6.97;;;5.10;;
55007;SDS011;40902;45.116;21.296;2023-05-10T02:02:01;7.85;;;4.97;;
55007;SDS011;40902;45.116;21.296;2023-05-10T02:04:29;7.28;;;4.75;;
55007;SDS011;40902;45.116;21.296;2023-05-10T02:06:56;6.13;;;4.93;;
55007;SDS011;40902;45.116;21.296;2023-05-10T02:09:22;6.55;;;5.30;;
55007;SDS011;40902;45.116;21.296;2023-05-10T02:11:50;6.28;;;5.15;;
55007;SDS011;40902;45.116;21.296;2023-05-10T02:14:16;8.18;;;5.40;;
55007;SDS011;40902;45.116;21.296;2023-05-10T02:16:44;7.45;;;5.38;;
55007;SDS011;40902;45.116;21.296;2023-05-10T02:19:11;7.82;;;5.47;;
55007;SDS011;40902;45.116;21.296;2023-05-10T02:21:39;11.25;;;5.60;;
55007;SDS011;40902;45.116;21.296;2023-05-10T02:24:05;10.15;;;6.28;;
55007;SDS011;40902;45.116;21.296;2023-05-10T02:26:32;8.77;;;5.78;;
55007;SDS011;40902;45.116;21.296;2023-05-10T02:29:01;8.40;;;5.50;;
55007;SDS011;40902;45.116;21.296;2023-05-10T02:31:29;7.50;;;5.88;;
55007;SDS011;40902;45.116;21.296;2023-05-10T02:34:00;7.53;;;6.18;;
55007;SDS011;40902;45.116;21.296;2023-05-10T02:36:27;8.07;;;6.57;;
55007;SDS011;40902;45.116;21.296;2023-05-10T02:38:54;7.70;;;5.57;;
55007;SDS011;40902;45.116;21.296;2023-05-10T02:41:21;7.95;;;6.53;;
55007;SDS011;40902;45.116;21.296;2023-05-10T02:43:50;8.25;;;6.07;;
55007;SDS011;40902;45.116;21.296;2023-05-10T02:46:18;7.82;;;6.10;;
55007;SDS011;40902;45.116;21.296;2023-05-10T02:48:44;9.40;;;5.82;;
55007;SDS011;40902;45.116;21.296;2023-05-10T02:51:10;9.13;;;6.30;;
55007;SDS011;40902;45.116;21.296;2023-05-10T02:53:40;7.78;;;6.70;;
55007;SDS011;40902;45.116;21.296;2023-05-10T02:56:15;10.35;;;6.75;;
55007;SDS011;40902;45.116;21.296;2023-05-10T02:58:50;8.13;;;7.30;;
55007;SDS011;40902;45.116;21.296;2023-05-10T03:01:15;7.93;;;6.95;;
55007;SDS011;40902;45.116;21.296;2023-05-10T03:03:41;10.57;;;7.45;;
55007;SDS011;40902;45.116;21.296;2023-05-10T03:06:07;14.60;;;7.85;;
55007;SDS011;40902;45.116;21.296;2023-05-10T03:08:32;8.73;;;7.57;;
55007;SDS011;40902;45.116;21.296;2023-05-10T03:11:22;8.70;;;7.65;;
55007;SDS011;40902;45.116;21.296;2023-05-10T03:17:29;8.68;;;7.45;;
55007;SDS011;40902;45.116;21.296;2023-05-10T03:20:04;8.65;;;7.18;;
55007;SDS011;40902;45.116;21.296;2023-05-10T03:22:44;9.82;;;7.25;;
55007;SDS011;40902;45.116;21.296;2023-05-10T03:25:12;8.57;;;7.65;;
55007;SDS011;40902;45.116;21.296;2023-05-10T03:27:42;8.32;;;7.43;;
55007;SDS011;40902;45.116;21.296;2023-05-10T03:30:10;12.15;;;7.72;;
55007;SDS011;40902;45.116;21.296;2023-05-10T03:32:37;10.35;;;7.47;;
55007;SDS011;40902;45.116;21.296;2023-05-10T03:35:06;9.20;;;7.78;;
55007;SDS011;40902;45.116;21.296;2023-05-10T03:37:33;9.50;;;8.35;;
55007;SDS011;40902;45.116;21.296;2023-05-10T03:40:00;11.05;;;7.88;;
55007;SDS011;40902;45.116;21.296;2023-05-10T03:42:26;9.93;;;7.70;;
55007;SDS011;40902;45.116;21.296;2023-05-10T03:44:52;10.48;;;8.57;;
55007;SDS011;40902;45.116;21.296;2023-05-10T03:47:17;10.35;;;8.13;;
55007;SDS011;40902;45.116;21.296;2023-05-10T03:49:43;8.52;;;7.63;;
55007;SDS011;40902;45.116;21.296;2023-05-10T03:52:09;10.45;;;8.00;;
55007;SDS011;40902;45.116;21.296;2023-05-10T03:54:34;7.82;;;6.70;;
55007;SDS011;40902;45.116;21.296;2023-05-10T03:57:00;8.23;;;7.38;;
55007;SDS011;40902;45.116;21.296;2023-05-10T03:59:26;10.70;;;7.70;;
55007;SDS011;40902;45.116;21.296;2023-05-10T04:01:51;8.05;;;6.97;;
55007;SDS011;40902;45.116;21.296;2023-05-10T04:04:17;9.93;;;7.45;;
55007;SDS011;40902;45.116;21.296;2023-05-10T04:06:43;10.55;;;7.13;;
55007;SDS011;40902;45.116;21.296;2023-05-10T04:09:10;7.55;;;6.38;;
55007;SDS011;40902;45.116;21.296;2023-05-10T04:11:35;6.97;;;6.13;;
55007;SDS011;40902;45.116;21.296;2023-05-10T04:14:01;8.38;;;6.00;;
55007;SDS011;40902;45.116;21.296;2023-05-10T04:16:27;6.72;;;6.03;;
55007;SDS011;40902;45.116;21.296;2023-05-10T04:18:53;8.38;;;6.15;;
55007;SDS011;40902;45.116;21.296;2023-05-10T04:21:19;7.22;;;5.28;;
55007;SDS011;40902;45.116;21.296;2023-05-10T04:23:44;8.90;;;5.55;;
55007;SDS011;40902;45.116;21.296;2023-05-10T04:26:10;6.40;;;5.70;;
55007;SDS011;40902;45.116;21.296;2023-05-10T04:28:36;7.82;;;5.18;;
55007;SDS011;40902;45.116;21.296;2023-05-10T04:31:05;5.88;;;5.28;;
55007;SDS011;40902;45.116;21.296;2023-05-10T04:33:32;7.15;;;5.25;;
55007;SDS011;40902;45.116;21.296;2023-05-10T04:35:58;6.60;;;4.78;;
55007;SDS011;40902;45.116;21.296;2023-05-10T04:38:24;6.03;;;4.30;;
55007;SDS011;40902;45.116;21.296;2023-05-10T04:40:50;7.80;;;5.30;;
55007;SDS011;40902;45.116;21.296;2023-05-10T04:43:16;8.23;;;5.07;;
55007;SDS011;40902;45.116;21.296;2023-05-10T04:45:42;5.25;;;4.15;;
55007;SDS011;40902;45.116;21.296;2023-05-10T04:48:07;11.20;;;5.30;;
55007;SDS011;40902;45.116;21.296;2023-05-10T04:50:33;8.35;;;4.00;;
55007;SDS011;40902;45.116;21.296;2023-05-10T04:52:59;10.65;;;4.60;;
55007;SDS011;40902;45.116;21.296;2023-05-10T04:55:24;7.68;;;4.40;;
55007;SDS011;40902;45.116;21.296;2023-05-10T04:57:51;5.80;;;4.40;;
55007;SDS011;40902;45.116;21.296;2023-05-10T05:00:18;5.57;;;4.60;;
55007;SDS011;40902;45.116;21.296;2023-05-10T05:02:44;7.13;;;4.93;;
55007;SDS011;40902;45.116;21.296;2023-05-10T05:05:13;7.10;;;5.32;;
55007;SDS011;40902;45.116;21.296;2023-05-10T05:07:38;8.55;;;4.63;;
55007;SDS011;40902;45.116;21.296;2023-05-10T05:10:05;6.07;;;4.80;;
55007;SDS011;40902;45.116;21.296;2023-05-10T05:12:32;5.78;;;4.53;;
55007;SDS011;40902;45.116;21.296;2023-05-10T05:14:57;7.00;;;4.90;;
55007;SDS011;40902;45.116;21.296;2023-05-10T05:17:23;7.15;;;4.60;;
55007;SDS011;40902;45.116;21.296;2023-05-10T05:19:49;7.70;;;5.25;;
55007;SDS011;40902;45.116;21.296;2023-05-10T05:22:14;6.05;;;4.65;;
55007;SDS011;40902;45.116;21.296;2023-05-10T05:24:40;6.30;;;4.90;;
55007;SDS011;40902;45.116;21.296;2023-05-10T05:27:06;7.03;;;4.90;;
55007;SDS011;40902;45.116;21.296;2023-05-10T05:29:32;5.45;;;4.40;;
55007;SDS011;40902;45.116;21.296;2023-05-10T05:31:58;5.50;;;4.70;;
55007;SDS011;40902;45.116;21.296;2023-05-10T05:34:24;6.28;;;4.95;;
55007;SDS011;40902;45.116;21.296;2023-05-10T05:36:50;6.72;;;4.75;;
55007;SDS011;40902;45.116;21.296;2023-05-10T05:39:16;10.63;;;5.80;;
55007;SDS011;40902;45.116;21.296;2023-05-10T05:41:41;7.93;;;5.10;;
55007;SDS011;40902;45.116;21.296;2023-05-10T05:44:07;6.53;;;5.10;;
55007;SDS011;40902;45.116;21.296;2023-05-10T05:46:33;10.10;;;4.97;;
55007;SDS011;40902;45.116;21.296;2023-05-10T05:48:59;7.32;;;4.30;;
55007;SDS011;40902;45.116;21.296;2023-05-10T05:51:26;5.82;;;4.32;;
55007;SDS011;40902;45.116;21.296;2023-05-10T05:53:52;6.50;;;4.07;;
55007;SDS011;40902;45.116;21.296;2023-05-10T05:56:18;9.73;;;4.40;;
55007;SDS011;40902;45.116;21.296;2023-05-10T05:58:49;7.28;;;4.20;;
55007;SDS011;40902;45.116;21.296;2023-05-10T06:01:15;5.68;;;4.28;;
55007;SDS011;40902;45.116;21.296;2023-05-10T06:03:41;7.10;;;4.53;;
55007;SDS011;40902;45.116;21.296;2023-05-10T06:06:07;8.20;;;4.55;;
55007;SDS011;40902;45.116;21.296;2023-05-10T06:08:33;6.07;;;4.75;;
55007;SDS011;40902;45.116;21.296;2023-05-10T06:10:59;6.57;;;3.80;;
55007;SDS011;40902;45.116;21.296;2023-05-10T06:13:25;6.85;;;3.85;;
55007;SDS011;40902;45.116;21.296;2023-05-10T06:15:56;5.55;;;3.88;;
55007;SDS011;40902;45.116;21.296;2023-05-10T06:18:24;7.90;;;4.25;;
55007;SDS011;40902;45.116;21.296;2023-05-10T06:20:50;5.72;;;4.20;;
55007;SDS011;40902;45.116;21.296;2023-05-10T06:23:16;7.43;;;4.25;;
55007;SDS011;40902;45.116;21.296;2023-05-10T06:25:42;7.28;;;4.10;;
55007;SDS011;40902;45.116;21.296;2023-05-10T06:28:08;5.13;;;3.90;;
55007;SDS011;40902;45.116;21.296;2023-05-10T06:30:35;6.18;;;4.35;;
55007;SDS011;40902;45.116;21.296;2023-05-10T06:33:01;7.32;;;3.67;;
55007;SDS011;40902;45.116;21.296;2023-05-10T06:35:27;6.38;;;4.10;;
55007;SDS011;40902;45.116;21.296;2023-05-10T06:37:53;6.07;;;4.43;;
55007;SDS011;40902;45.116;21.296;2023-05-10T06:40:19;7.03;;;4.38;;
55007;SDS011;40902;45.116;21.296;2023-05-10T06:42:47;5.85;;;4.28;;
55007;SDS011;40902;45.116;21.296;2023-05-10T06:45:13;5.93;;;4.03;;
55007;SDS011;40902;45.116;21.296;2023-05-10T06:47:40;6.28;;;4.20;;
55007;SDS011;40902;45.116;21.296;2023-05-10T06:50:07;5.50;;;4.03;;
55007;SDS011;40902;45.116;21.296;2023-05-10T06:52:33;5.35;;;4.03;;
55007;SDS011;40902;45.116;21.296;2023-05-10T06:54:59;7.97;;;4.40;;
55007;SDS011;40902;45.116;21.296;2023-05-10T06:57:25;5.10;;;3.90;;
55007;SDS011;40902;45.116;21.296;2023-05-10T06:59:51;6.07;;;3.60;;
55007;SDS011;40902;45.116;21.296;2023-05-10T07:02:17;6.28;;;4.00;;
55007;SDS011;40902;45.116;21.296;2023-05-10T07:04:43;6.25;;;3.92;;
55007;SDS011;40902;45.116;21.296;2023-05-10T07:07:09;11.30;;;4.35;;
55007;SDS011;40902;45.116;21.296;2023-05-10T07:09:35;9.02;;;4.60;;
55007;SDS011;40902;45.116;21.296;2023-05-10T07:12:00;6.57;;;4.35;;
55007;SDS011;40902;45.116;21.296;2023-05-10T07:14:27;5.82;;;3.78;;
55007;SDS011;40902;45.116;21.296;2023-05-10T07:16:52;7.68;;;3.80;;
55007;SDS011;40902;45.116;21.296;2023-05-10T07:19:18;6.45;;;3.92;;
55007;SDS011;40902;45.116;21.296;2023-05-10T07:21:44;4.88;;;3.90;;
55007;SDS011;40902;45.116;21.296;2023-05-10T07:24:10;6.43;;;3.80;;
55007;SDS011;40902;45.116;21.296;2023-05-10T07:26:36;5.88;;;3.47;;
55007;SDS011;40902;45.116;21.296;2023-05-10T07:29:02;7.03;;;3.90;;
55007;SDS011;40902;45.116;21.296;2023-05-10T07:31:27;7.25;;;3.70;;
55007;SDS011;40902;45.116;21.296;2023-05-10T07:33:53;8.05;;;3.80;;
55007;SDS011;40902;45.116;21.296;2023-05-10T07:36:19;11.88;;;3.63;;
55007;SDS011;40902;45.116;21.296;2023-05-10T07:38:45;5.97;;;3.78;;
55007;SDS011;40902;45.116;21.296;2023-05-10T07:41:13;6.28;;;3.58;;
55007;SDS011;40902;45.116;21.296;2023-05-10T07:43:39;7.30;;;3.40;;
55007;SDS011;40902;45.116;21.296;2023-05-10T07:46:05;8.27;;;3.63;;
55007;SDS011;40902;45.116;21.296;2023-05-10T07:48:31;5.88;;;3.40;;
55007;SDS011;40902;45.116;21.296;2023-05-10T07:50:56;5.97;;;3.38;;
55007;SDS011;40902;45.116;21.296;2023-05-10T07:53:22;4.70;;;3.10;;
55007;SDS011;40902;45.116;21.296;2023-05-10T07:55:51;7.18;;;3.55;;
55007;SDS011;40902;45.116;21.296;2023-05-10T07:58:19;7.07;;;3.60;;
55007;SDS011;40902;45.116;21.296;2023-05-10T08:00:45;6.72;;;3.28;;
55007;SDS011;40902;45.116;21.296;2023-05-10T08:03:10;5.85;;;3.13;;
55007;SDS011;40902;45.116;21.296;2023-05-10T08:05:36;5.05;;;2.97;;
55007;SDS011;40902;45.116;21.296;2023-05-10T08:08:02;5.63;;;3.50;;
55007;SDS011;40902;45.116;21.296;2023-05-10T08:10:28;5.65;;;3.08;;
55007;SDS011;40902;45.116;21.296;2023-05-10T08:12:53;6.80;;;3.70;;
55007;SDS011;40902;45.116;21.296;2023-05-10T08:15:19;4.72;;;3.08;;
55007;SDS011;40902;45.116;21.296;2023-05-10T08:17:45;5.15;;;3.17;;
55007;SDS011;40902;45.116;21.296;2023-05-10T08:20:11;5.93;;;3.30;;
55007;SDS011;40902;45.116;21.296;2023-05-10T08:22:41;4.72;;;3.38;;
55007;SDS011;40902;45.116;21.296;2023-05-10T08:25:07;5.22;;;3.50;;
55007;SDS011;40902;45.116;21.296;2023-05-10T08:27:33;6.88;;;3.30;;
55007;SDS011;40902;45.116;21.296;2023-05-10T08:29:58;6.50;;;3.00;;
55007;SDS011;40902;45.116;21.296;2023-05-10T08:32:25;5.85;;;3.17;;
55007;SDS011;40902;45.116;21.296;2023-05-10T08:34:51;6.90;;;3.25;;
55007;SDS011;40902;45.116;21.296;2023-05-10T08:37:16;4.18;;;2.58;;
55007;SDS011;40902;45.116;21.296;2023-05-10T08:39:42;4.82;;;3.30;;
55007;SDS011;40902;45.116;21.296;2023-05-10T08:42:08;6.57;;;3.13;;
55007;SDS011;40902;45.116;21.296;2023-05-10T08:44:35;8.73;;;3.38;;
55007;SDS011;40902;45.116;21.296;2023-05-10T08:47:05;5.78;;;3.10;;
55007;SDS011;40902;45.116;21.296;2023-05-10T08:49:32;5.30;;;3.00;;
55007;SDS011;40902;45.116;21.296;2023-05-10T08:51:59;4.05;;;2.78;;
55007;SDS011;40902;45.116;21.296;2023-05-10T08:54:28;6.05;;;3.03;;
55007;SDS011;40902;45.116;21.296;2023-05-10T08:56:54;5.13;;;2.90;;
55007;SDS011;40902;45.116;21.296;2023-05-10T08:59:21;6.43;;;3.10;;
55007;SDS011;40902;45.116;21.296;2023-05-10T09:01:47;5.20;;;2.88;;
55007;SDS011;40902;45.116;21.296;2023-05-10T09:04:14;7.10;;;3.08;;
55007;SDS011;40902;45.116;21.296;2023-05-10T09:06:40;7.15;;;2.90;;
55007;SDS011;40902;45.116;21.296;2023-05-10T09:09:06;5.13;;;2.53;;
55007;SDS011;40902;45.116;21.296;2023-05-10T09:11:32;5.22;;;2.83;;
55007;SDS011;40902;45.116;21.296;2023-05-10T09:13:58;5.90;;;2.90;;
55007;SDS011;40902;45.116;21.296;2023-05-10T09:16:24;4.38;;;2.85;;
55007;SDS011;40902;45.116;21.296;2023-05-10T09:18:50;4.57;;;3.00;;
55007;SDS011;40902;45.116;21.296;2023-05-10T09:21:16;7.60;;;3.00;;
55007;SDS011;40902;45.116;21.296;2023-05-10T09:23:43;4.95;;;2.92;;
55007;SDS011;40902;45.116;21.296;2023-05-10T09:26:09;5.90;;;2.97;;
55007;SDS011;40902;45.116;21.296;2023-05-10T09:28:49;12.73;;;6.32;;
55007;SDS011;40902;45.116;21.296;2023-05-10T09:31:16;7.47;;;4.30;;
55007;SDS011;40902;45.116;21.296;2023-05-10T09:33:48;8.85;;;3.17;;
55007;SDS011;40902;45.116;21.296;2023-05-10T09:36:15;6.35;;;3.20;;
55007;SDS011;40902;45.116;21.296;2023-05-10T09:38:51;7.60;;;3.67;;
55007;SDS011;40902;45.116;21.296;2023-05-10T09:41:24;8.18;;;3.80;;
55007;SDS011;40902;45.116;21.296;2023-05-10T09:43:50;6.72;;;3.72;;
55007;SDS011;40902;45.116;21.296;2023-05-10T09:46:21;7.47;;;3.50;;
55007;SDS011;40902;45.116;21.296;2023-05-10T09:48:47;4.90;;;2.88;;
55007;SDS011;40902;45.116;21.296;2023-05-10T09:51:23;7.13;;;3.45;;
55007;SDS011;40902;45.116;21.296;2023-05-10T09:56:40;6.63;;;3.83;;
55007;SDS011;40902;45.116;21.296;2023-05-10T09:59:07;6.43;;;3.90;;
55007;SDS011;40902;45.116;21.296;2023-05-10T10:01:37;5.70;;;2.80;;
55007;SDS011;40902;45.116;21.296;2023-05-10T10:04:04;6.35;;;2.78;;
55007;SDS011;40902;45.116;21.296;2023-05-10T10:06:37;10.18;;;3.35;;
55007;SDS011;40902;45.116;21.296;2023-05-10T10:09:04;8.80;;;3.57;;
55007;SDS011;40902;45.116;21.296;2023-05-10T10:11:31;6.00;;;2.95;;
55007;SDS011;40902;45.116;21.296;2023-05-10T10:13:57;11.82;;;4.40;;
55007;SDS011;40902;45.116;21.296;2023-05-10T10:16:24;10.88;;;3.90;;
55007;SDS011;40902;45.116;21.296;2023-05-10T10:18:50;4.75;;;2.83;;
55007;SDS011;40902;45.116;21.296;2023-05-10T10:21:15;9.38;;;3.10;;
55007;SDS011;40902;45.116;21.296;2023-05-10T10:23:42;5.60;;;3.10;;
55007;SDS011;40902;45.116;21.296;2023-05-10T10:26:08;7.57;;;3.72;;
55007;SDS011;40902;45.116;21.296;2023-05-10T10:31:43;4.53;;;2.90;;
55007;SDS011;40902;45.116;21.296;2023-05-10T10:34:28;7.75;;;3.72;;
55007;SDS011;40902;45.116;21.296;2023-05-10T10:36:55;6.53;;;2.90;;
55007;SDS011;40902;45.116;21.296;2023-05-10T10:39:22;6.22;;;3.10;;
55007;SDS011;40902;45.116;21.296;2023-05-10T10:41:55;7.60;;;3.65;;
55007;SDS011;40902;45.116;21.296;2023-05-10T10:50:16;8.25;;;4.03;;
55007;SDS011;40902;45.116;21.296;2023-05-10T10:55:04;8.05;;;4.13;;
55007;SDS011;40902;45.116;21.296;2023-05-10T10:57:32;5.68;;;3.60;;
55007;SDS011;40902;45.116;21.296;2023-05-10T11:00:18;7.25;;;3.08;;
55007;SDS011;40902;45.116;21.296;2023-05-10T11:02:51;5.20;;;2.85;;
55007;SDS011;40902;45.116;21.296;2023-05-10T11:05:24;6.20;;;3.45;;
55007;SDS011;40902;45.116;21.296;2023-05-10T11:08:00;7.93;;;3.83;;
55007;SDS011;40902;45.116;21.296;2023-05-10T11:10:26;6.43;;;2.85;;
55007;SDS011;40902;45.116;21.296;2023-05-10T11:13:00;7.55;;;2.50;;
55007;SDS011;40902;45.116;21.296;2023-05-10T11:15:31;5.43;;;2.90;;
55007;SDS011;40902;45.116;21.296;2023-05-10T11:17:58;7.68;;;2.72;;
55007;SDS011;40902;45.116;21.296;2023-05-10T11:20:26;5.22;;;2.65;;
55007;SDS011;40902;45.116;21.296;2023-05-10T11:23:10;6.65;;;2.97;;
55007;SDS011;40902;45.116;21.296;2023-05-10T11:25:41;6.07;;;3.17;;
55007;SDS011;40902;45.116;21.296;2023-05-10T11:28:10;7.88;;;3.13;;
55007;SDS011;40902;45.116;21.296;2023-05-10T11:30:40;5.57;;;2.83;;
55007;SDS011;40902;45.116;21.296;2023-05-10T11:33:08;5.90;;;3.03;;
55007;SDS011;40902;45.116;21.296;2023-05-10T11:35:37;8.38;;;3.30;;
55007;SDS011;40902;45.116;21.296;2023-05-10T11:38:08;6.45;;;3.17;;
55007;SDS011;40902;45.116;21.296;2023-05-10T11:40:35;4.35;;;2.88;;
55007;SDS011;40902;45.116;21.296;2023-05-10T11:43:02;5.25;;;3.13;;
55007;SDS011;40902;45.116;21.296;2023-05-10T11:45:28;6.15;;;2.92;;
55007;SDS011;40902;45.116;21.296;2023-05-10T11:47:57;9.05;;;3.15;;
55007;SDS011;40902;45.116;21.296;2023-05-10T11:50:24;8.00;;;2.95;;
55007;SDS011;40902;45.116;21.296;2023-05-10T11:52:54;5.57;;;2.55;;
55007;SDS011;40902;45.116;21.296;2023-05-10T11:55:21;5.93;;;3.10;;
55007;SDS011;40902;45.116;21.296;2023-05-10T11:57:51;7.85;;;2.65;;
55007;SDS011;40902;45.116;21.296;2023-05-10T12:00:17;5.60;;;2.70;;
55007;SDS011;40902;45.116;21.296;2023-05-10T12:02:43;6.20;;;2.92;;
55007;SDS011;40902;45.116;21.296;2023-05-10T12:05:09;7.25;;;3.17;;
55007;SDS011;40902;45.116;21.296;2023-05-10T12:07:35;6.65;;;2.92;;
55007;SDS011;40902;45.116;21.296;2023-05-10T12:10:13;6.90;;;2.60;;
55007;SDS011;40902;45.116;21.296;2023-05-10T12:12:45;4.68;;;2.70;;
55007;SDS011;40902;45.116;21.296;2023-05-10T12:17:46;6.05;;;2.90;;
55007;SDS011;40902;45.116;21.296;2023-05-10T12:20:16;4.50;;;2.90;;
55007;SDS011;40902;45.116;21.296;2023-05-10T12:22:44;7.85;;;2.75;;
55007;SDS011;40902;45.116;21.296;2023-05-10T12:25:11;3.67;;;2.70;;
55007;SDS011;40902;45.116;21.296;2023-05-10T12:27:36;3.10;;;2.60;;
55007;SDS011;40902;45.116;21.296;2023-05-10T12:30:02;6.00;;;2.83;;
55007;SDS011;40902;45.116;21.296;2023-05-10T12:32:40;8.18;;;2.55;;
55007;SDS011;40902;45.116;21.296;2023-05-10T12:35:07;4.40;;;2.90;;
55007;SDS011;40902;45.116;21.296;2023-05-10T12:37:33;3.67;;;2.80;;
55007;SDS011;40902;45.116;21.296;2023-05-10T12:40:04;8.30;;;3.55;;
55007;SDS011;40902;45.116;21.296;2023-05-10T12:42:31;4.88;;;2.65;;
55007;SDS011;40902;45.116;21.296;2023-05-10T12:44:57;6.45;;;3.08;;
55007;SDS011;40902;45.116;21.296;2023-05-10T12:47:23;5.95;;;2.35;;
55007;SDS011;40902;45.116;21.296;2023-05-10T12:49:48;5.82;;;2.45;;
55007;SDS011;40902;45.116;21.296;2023-05-10T12:52:14;6.63;;;2.75;;
55007;SDS011;40902;45.116;21.296;2023-05-10T12:54:40;5.28;;;2.72;;
55007;SDS011;40902;45.116;21.296;2023-05-10T12:57:05;4.65;;;2.58;;
55007;SDS011;40902;45.116;21.296;2023-05-10T12:59:31;5.15;;;2.80;;
55007;SDS011;40902;45.116;21.296;2023-05-10T13:01:57;3.63;;;2.30;;
55007;SDS011;40902;45.116;21.296;2023-05-10T13:04:23;3.47;;;2.30;;
55007;SDS011;40902;45.116;21.296;2023-05-10T13:06:48;7.47;;;2.50;;
55007;SDS011;40902;45.116;21.296;2023-05-10T13:09:14;4.80;;;2.40;;
55007;SDS011;40902;45.116;21.296;2023-05-10T13:11:40;6.28;;;2.47;;
55007;SDS011;40902;45.116;21.296;2023-05-10T13:14:06;6.38;;;2.90;;
55007;SDS011;40902;45.116;21.296;2023-05-10T13:16:32;4.63;;;2.80;;
55007;SDS011;40902;45.116;21.296;2023-05-10T13:18:57;6.03;;;3.13;;
55007;SDS011;40902;45.116;21.296;2023-05-10T13:21:23;4.25;;;2.67;;
55007;SDS011;40902;45.116;21.296;2023-05-10T13:23:50;4.53;;;2.78;;
55007;SDS011;40902;45.116;21.296;2023-05-10T13:26:16;4.38;;;2.85;;
55007;SDS011;40902;45.116;21.296;2023-05-10T13:28:41;5.10;;;2.78;;
55007;SDS011;40902;45.116;21.296;2023-05-10T13:31:08;12.60;;;2.55;;
55007;SDS011;40902;45.116;21.296;2023-05-10T13:33:34;6.22;;;3.30;;
55007;SDS011;40902;45.116;21.296;2023-05-10T13:35:59;6.03;;;2.38;;
55007;SDS011;40902;45.116;21.296;2023-05-10T13:38:26;8.45;;;3.05;;
55007;SDS011;40902;45.116;21.296;2023-05-10T13:40:52;8.00;;;2.70;;
55007;SDS011;40902;45.116;21.296;2023-05-10T13:43:18;4.80;;;2.70;;
55007;SDS011;40902;45.116;21.296;2023-05-10T13:45:44;4.43;;;2.58;;
55007;SDS011;40902;45.116;21.296;2023-05-10T13:48:10;4.20;;;2.38;;
55007;SDS011;40902;45.116;21.296;2023-05-10T13:50:35;7.68;;;2.90;;
55007;SDS011;40902;45.116;21.296;2023-05-10T13:53:01;5.07;;;2.22;;
55007;SDS011;40902;45.116;21.296;2023-05-10T13:55:27;5.18;;;2.60;;
55007;SDS011;40902;45.116;21.296;2023-05-10T13:57:53;8.73;;;3.10;;
55007;SDS011;40902;45.116;21.296;2023-05-10T14:00:19;5.68;;;2.75;;
55007;SDS011;40902;45.116;21.296;2023-05-10T14:02:44;4.13;;;2.30;;
55007;SDS011;40902;45.116;21.296;2023-05-10T14:05:10;5.78;;;2.50;;
55007;SDS011;40902;45.116;21.296;2023-05-10T14:07:36;5.97;;;3.08;;
55007;SDS011;40902;45.116;21.296;2023-05-10T14:10:01;7.47;;;2.60;;
55007;SDS011;40902;45.116;21.296;2023-05-10T14:12:27;9.90;;;2.42;;
55007;SDS011;40902;45.116;21.296;2023-05-10T14:14:54;6.82;;;2.47;;
55007;SDS011;40902;45.116;21.296;2023-05-10T14:17:19;7.60;;;2.53;;
55007;SDS011;40902;45.116;21.296;2023-05-10T14:19:45;5.93;;;2.67;;
55007;SDS011;40902;45.116;21.296;2023-05-10T14:22:11;3.83;;;2.30;;
55007;SDS011;40902;45.116;21.296;2023-05-10T14:24:37;6.45;;;2.42;;
55007;SDS011;40902;45.116;21.296;2023-05-10T14:27:08;7.00;;;2.80;;
55007;SDS011;40902;45.116;21.296;2023-05-10T14:29:37;6.22;;;2.47;;
55007;SDS011;40902;45.116;21.296;2023-05-10T14:32:03;4.88;;;2.42;;
55007;SDS011;40902;45.116;21.296;2023-05-10T14:34:29;8.93;;;2.40;;
55007;SDS011;40902;45.116;21.296;2023-05-10T14:36:55;5.60;;;2.47;;
55007;SDS011;40902;45.116;21.296;2023-05-10T14:39:21;3.70;;;2.38;;
55007;SDS011;40902;45.116;21.296;2023-05-10T14:41:50;3.40;;;2.10;;
55007;SDS011;40902;45.116;21.296;2023-05-10T14:44:17;6.22;;;2.15;;
55007;SDS011;40902;45.116;21.296;2023-05-10T14:46:43;4.05;;;2.45;;
55007;SDS011;40902;45.116;21.296;2023-05-10T14:49:09;5.03;;;2.47;;
55007;SDS011;40902;45.116;21.296;2023-05-10T14:51:35;4.78;;;2.28;;
55007;SDS011;40902;45.116;21.296;2023-05-10T14:54:01;6.53;;;2.42;;
55007;SDS011;40902;45.116;21.296;2023-05-10T14:56:28;5.60;;;2.28;;
55007;SDS011;40902;45.116;21.296;2023-05-10T14:58:54;6.80;;;2.92;;
55007;SDS011;40902;45.116;21.296;2023-05-10T15:01:20;5.10;;;2.10;;
55007;SDS011;40902;45.116;21.296;2023-05-10T15:03:46;5.68;;;2.28;;
55007;SDS011;40902;45.116;21.296;2023-05-10T15:06:14;4.35;;;2.35;;
55007;SDS011;40902;45.116;21.296;2023-05-10T15:08:43;4.40;;;2.88;;